Goodwell, Oklahoma
Current Conditions -  °F | °C
As of 12:53 AM on Saturday 25 Oct 2014 (Local Time) from KGUY Reporting Station
Clear Clear  
Wind Chill: 58°   Ceiling: Unl
Heat Index: 58°   Visibility: 10mi
Dew Point: 41°   Wind: 5mph
Humidity: 53%   Direction: 230°SW
Pressure: 30.1"   Gusts: NA
Location:  36.6°N, 101.64°W
Report Text: KGUY 250553Z AUTO 23004KT 10SM CLR 14/05 A3010 RMK AO2 SLP152 T01440050 10244 20128 403220083 50004
Loading
Personal Weather Stations






























Interactive Weather Map
Tropical Storm Tracking
New forecast layout! Learn more

10-Day Weather Forecast

Advertisements
Track Severe Weather on mobile